createdAt,value
2018-06-03T00:00:25.441Z,20.50
2018-06-03T00:00:59.965Z,20.50
2018-06-03T00:01:33.527Z,20.50
2018-06-03T00:02:07.597Z,20.50
2018-06-03T00:02:41.147Z,20.50
2018-06-03T00:03:14.767Z,20.50
2018-06-03T00:03:48.331Z,20.50
2018-06-03T00:04:22.545Z,20.50
2018-06-03T00:04:56.684Z,20.50
2018-06-03T00:06:03.535Z,20.50
2018-06-03T00:06:37.202Z,20.50
2018-06-03T00:07:10.775Z,20.40
2018-06-03T00:07:45.699Z,20.50
2018-06-03T00:08:19.236Z,20.50
2018-06-03T00:08:52.791Z,20.40
2018-06-03T00:09:26.332Z,20.40
2018-06-03T00:09:59.966Z,20.40
2018-06-03T00:10:34.367Z,20.40
2018-06-03T00:11:07.975Z,20.40
2018-06-03T00:11:41.539Z,20.40
2018-06-03T00:12:15.145Z,20.50
2018-06-03T00:12:48.720Z,20.40
2018-06-03T00:13:22.892Z,20.50
2018-06-03T00:13:56.528Z,20.40
2018-06-03T00:14:30.020Z,20.40
2018-06-03T00:15:03.560Z,20.50
2018-06-03T00:15:37.144Z,20.50
2018-06-03T00:16:10.671Z,20.40
2018-06-03T00:16:44.416Z,20.50
2018-06-03T00:17:17.972Z,20.50
2018-06-03T00:18:24.781Z,20.50
2018-06-03T00:18:58.905Z,20.50
2018-06-03T00:19:32.455Z,20.40
2018-06-03T00:20:06.004Z,20.40
2018-06-03T00:20:51.419Z,20.40
2018-06-03T00:21:36.154Z,20.40
2018-06-03T00:22:15.431Z,20.40
2018-06-03T00:22:49.775Z,20.40
2018-06-03T00:23:23.564Z,20.40
2018-06-03T00:24:04.701Z,20.40
2018-06-03T00:24:38.288Z,20.40
2018-06-03T00:25:11.801Z,20.40
2018-06-03T00:25:46.009Z,20.40
2018-06-03T00:26:19.573Z,20.40
2018-06-03T00:28:01.421Z,20.40
2018-06-03T00:28:34.980Z,20.40
2018-06-03T00:29:08.583Z,20.40
2018-06-03T00:29:42.115Z,20.40
2018-06-03T00:30:15.798Z,20.40
2018-06-03T00:30:49.427Z,20.40
2018-06-03T00:31:23.071Z,20.40
2018-06-03T00:31:56.632Z,20.40
2018-06-03T00:32:30.351Z,20.40
2018-06-03T00:33:03.944Z,20.40
2018-06-03T00:33:37.644Z,20.40
2018-06-03T00:34:44.415Z,20.40
2018-06-03T00:35:18.530Z,20.40
2018-06-03T00:36:03.408Z,20.40
2018-06-03T00:36:45.928Z,20.40
2018-06-03T00:37:19.502Z,20.40
2018-06-03T00:37:53.643Z,20.40
2018-06-03T00:38:27.216Z,20.40
2018-06-03T00:39:01.537Z,20.40
2018-06-03T00:39:35.112Z,20.40
2018-06-03T00:40:08.649Z,20.40
2018-06-03T00:40:42.232Z,20.40
2018-06-03T00:41:15.889Z,20.40
2018-06-03T00:41:49.485Z,20.40
2018-06-03T00:42:23.756Z,20.40
2018-06-03T00:42:59.384Z,20.40
2018-06-03T00:43:32.963Z,20.40
2018-06-03T00:44:06.508Z,20.40
2018-06-03T00:44:40.672Z,20.40
2018-06-03T00:45:14.277Z,20.40
2018-06-03T00:45:48.436Z,20.40
2018-06-03T00:46:22.015Z,20.30
2018-06-03T00:46:55.612Z,20.30
2018-06-03T00:47:29.297Z,20.30
2018-06-03T00:48:02.843Z,20.30
2018-06-03T00:48:36.394Z,20.30
2018-06-03T00:49:10.420Z,20.30
2018-06-03T00:49:44.078Z,20.30
2018-06-03T00:50:17.632Z,20.30
2018-06-03T00:50:52.412Z,20.30
2018-06-03T00:51:26.370Z,20.30
2018-06-03T00:52:00.554Z,20.30
2018-06-03T00:52:35.508Z,20.30
2018-06-03T00:53:09.061Z,20.30
2018-06-03T00:53:42.898Z,20.30
2018-06-03T00:54:16.463Z,20.30
2018-06-03T00:54:51.345Z,20.30
2018-06-03T00:55:25.150Z,20.30
2018-06-03T00:55:58.704Z,20.30
2018-06-03T00:56:43.279Z,20.40
2018-06-03T00:57:16.781Z,20.30
2018-06-03T00:57:50.817Z,20.30
2018-06-03T00:58:24.407Z,20.40
2018-06-03T00:58:57.992Z,20.30
2018-06-03T00:59:32.515Z,20.30
2018-06-03T01:00:06.904Z,20.30
2018-06-03T01:00:40.487Z,20.30
2018-06-03T01:01:14.843Z,20.30
2018-06-03T01:01:48.335Z,20.30
2018-06-03T01:02:21.936Z,20.30
2018-06-03T01:02:55.503Z,20.30
2018-06-03T01:03:29.036Z,20.30
2018-06-03T01:04:02.642Z,20.30
2018-06-03T01:04:37.076Z,20.30
2018-06-03T01:05:11.221Z,20.30
2018-06-03T01:05:44.751Z,20.30
2018-06-03T01:06:19.542Z,20.30
2018-06-03T01:06:53.165Z,20.40
2018-06-03T01:07:27.273Z,20.30
2018-06-03T01:08:00.880Z,20.40
2018-06-03T01:08:34.465Z,20.30
2018-06-03T01:09:07.992Z,20.30
2018-06-03T01:09:42.254Z,20.30
2018-06-03T01:10:16.551Z,20.30
2018-06-03T01:10:50.141Z,20.30
2018-06-03T01:11:23.687Z,20.30
2018-06-03T01:11:57.216Z,20.30
2018-06-03T01:12:30.766Z,20.30
2018-06-03T01:13:04.334Z,20.30
2018-06-03T01:13:37.878Z,20.30
2018-06-03T01:14:12.039Z,20.30
2018-06-03T01:14:45.672Z,20.30
2018-06-03T01:15:19.317Z,20.30
2018-06-03T01:15:52.875Z,20.30
2018-06-03T01:16:26.393Z,20.30
2018-06-03T01:16:59.967Z,20.30
2018-06-03T01:18:06.824Z,20.30
2018-06-03T01:18:40.423Z,20.30
2018-06-03T01:19:47.260Z,20.20
2018-06-03T01:20:21.785Z,20.20
2018-06-03T01:20:55.377Z,20.20
2018-06-03T01:21:29.489Z,20.20
2018-06-03T01:22:03.037Z,20.20
2018-06-03T01:22:36.660Z,20.20
2018-06-03T01:23:43.492Z,20.20
2018-06-03T01:24:17.418Z,20.20
2018-06-03T01:25:24.229Z,20.20
2018-06-03T01:25:57.792Z,20.20
2018-06-03T01:26:32.084Z,20.20
2018-06-03T01:27:05.703Z,20.20
2018-06-03T01:27:39.799Z,20.20
2018-06-03T01:28:13.353Z,20.20
2018-06-03T01:28:46.904Z,20.20
2018-06-03T01:29:21.155Z,20.20
2018-06-03T01:29:55.331Z,20.20
2018-06-03T01:30:28.903Z,20.20
2018-06-03T01:31:02.521Z,20.20
2018-06-03T01:31:36.606Z,20.20
2018-06-03T01:32:10.213Z,20.20
2018-06-03T01:32:43.832Z,20.20
2018-06-03T01:33:17.521Z,20.20
2018-06-03T01:33:51.744Z,20.20
2018-06-03T01:34:25.264Z,20.20
2018-06-03T01:34:58.855Z,20.20
2018-06-03T01:35:32.427Z,20.20
2018-06-03T01:36:06.150Z,20.20
2018-06-03T01:37:12.991Z,20.20
2018-06-03T01:37:47.267Z,20.20
2018-06-03T01:38:21.567Z,20.20
2018-06-03T01:38:55.091Z,20.20
2018-06-03T01:39:28.652Z,20.30
2018-06-03T01:40:02.241Z,20.30
2018-06-03T01:40:35.816Z,20.30
2018-06-03T01:41:09.385Z,20.30
2018-06-03T01:41:44.173Z,20.30
2018-06-03T01:42:17.728Z,20.30
2018-06-03T01:42:51.340Z,20.30
2018-06-03T01:43:58.121Z,20.20
2018-06-03T01:44:31.671Z,20.30
2018-06-03T01:45:05.278Z,20.20
2018-06-03T01:46:12.115Z,20.20
2018-06-03T01:46:45.636Z,20.20
2018-06-03T01:47:19.789Z,20.30
2018-06-03T01:47:53.345Z,20.20
2018-06-03T01:48:27.213Z,20.20
2018-06-03T01:49:00.841Z,20.20
2018-06-03T01:49:34.380Z,20.30
2018-06-03T01:50:07.973Z,20.20
2018-06-03T01:50:41.562Z,20.30
2018-06-03T01:51:15.107Z,20.30
2018-06-03T01:51:48.711Z,20.30
2018-06-03T01:52:22.285Z,20.20
2018-06-03T01:52:56.715Z,20.30
2018-06-03T01:53:31.053Z,20.30
2018-06-03T01:54:05.007Z,20.20
2018-06-03T01:54:38.588Z,20.20
2018-06-03T01:55:12.639Z,20.20
2018-06-03T01:56:19.391Z,20.20
2018-06-03T01:56:53.520Z,20.20
2018-06-03T01:57:27.099Z,20.10
2018-06-03T01:58:00.602Z,20.20
2018-06-03T01:58:34.182Z,20.10
2018-06-03T01:59:07.751Z,20.10
2018-06-03T01:59:41.490Z,20.10
2018-06-03T02:00:15.027Z,20.00
2018-06-03T02:00:48.601Z,20.10
2018-06-03T02:01:22.148Z,20.00
2018-06-03T02:01:56.381Z,20.00
2018-06-03T02:02:29.908Z,20.00
2018-06-03T02:03:03.430Z,20.00
2018-06-03T02:03:37.065Z,19.90
2018-06-03T02:04:44.591Z,19.90
2018-06-03T02:05:18.131Z,19.90
2018-06-03T02:05:51.664Z,19.90
2018-06-03T02:06:26.230Z,19.90
2018-06-03T02:06:59.915Z,19.90
2018-06-03T02:07:33.465Z,19.80
2018-06-03T02:08:07.045Z,19.80
2018-06-03T02:08:40.637Z,19.80
2018-06-03T02:09:14.232Z,19.80
2018-06-03T02:09:47.915Z,19.80
2018-06-03T02:10:22.163Z,19.80
2018-06-03T02:10:55.750Z,19.80
2018-06-03T02:11:29.327Z,19.80
2018-06-03T02:12:02.925Z,19.80
2018-06-03T02:12:36.529Z,19.70
2018-06-03T02:13:10.811Z,19.80
2018-06-03T02:13:44.367Z,19.70
2018-06-03T02:14:17.927Z,19.70
2018-06-03T02:14:51.532Z,19.70
2018-06-03T02:15:25.869Z,19.70
2018-06-03T02:16:00.220Z,19.70
2018-06-03T02:16:33.831Z,19.70
2018-06-03T02:17:07.449Z,19.70
2018-06-03T02:17:41.049Z,19.70
2018-06-03T02:18:14.569Z,19.70
2018-06-03T02:18:48.159Z,19.60
2018-06-03T02:19:21.781Z,19.70
2018-06-03T02:19:55.283Z,19.70
2018-06-03T02:20:28.953Z,19.70
2018-06-03T02:21:03.301Z,19.70
2018-06-03T02:21:36.892Z,19.70
2018-06-03T02:22:10.485Z,19.70
2018-06-03T02:22:44.780Z,19.80
2018-06-03T02:23:51.557Z,19.70
2018-06-03T02:24:25.095Z,19.80
2018-06-03T02:24:58.713Z,19.80
2018-06-03T02:26:05.528Z,19.80
2018-06-03T02:26:39.068Z,19.80
2018-06-03T02:27:12.636Z,19.80
2018-06-03T02:27:46.202Z,19.80
2018-06-03T02:28:19.753Z,19.80
2018-06-03T02:28:53.761Z,19.80
2018-06-03T02:29:27.316Z,19.80
2018-06-03T02:30:00.853Z,19.80
2018-06-03T02:30:34.916Z,19.80
2018-06-03T02:31:08.939Z,19.80
2018-06-03T02:31:42.544Z,19.80
2018-06-03T02:32:16.145Z,19.80
2018-06-03T02:32:50.253Z,19.70
2018-06-03T02:33:23.869Z,19.70
2018-06-03T02:33:58.039Z,19.70
2018-06-03T02:34:31.852Z,19.70
2018-06-03T02:35:05.552Z,19.70
2018-06-03T02:35:39.101Z,19.70
2018-06-03T02:36:13.326Z,19.60
2018-06-03T02:36:46.921Z,19.70
2018-06-03T02:37:20.492Z,19.70
2018-06-03T02:37:54.151Z,19.70
2018-06-03T02:38:27.689Z,19.60
2018-06-03T02:39:01.201Z,19.60
2018-06-03T02:39:34.769Z,19.70
2018-06-03T02:40:08.364Z,19.60
2018-06-03T02:40:41.967Z,19.70
2018-06-03T02:41:15.596Z,19.60
2018-06-03T02:41:49.877Z,19.60
2018-06-03T02:42:23.491Z,19.60
2018-06-03T02:42:57.008Z,19.60
2018-06-03T02:44:04.861Z,19.60
2018-06-03T02:44:38.408Z,19.60
2018-06-03T02:45:12.048Z,19.60
2018-06-03T02:45:46.146Z,19.60
2018-06-03T02:46:19.724Z,19.70
2018-06-03T02:46:53.942Z,19.60
2018-06-03T02:47:28.196Z,19.70
2018-06-03T02:48:01.700Z,19.70
2018-06-03T02:48:35.594Z,19.60
2018-06-03T02:49:09.184Z,19.60
2018-06-03T02:49:43.316Z,19.60
2018-06-03T02:50:17.440Z,19.60
2018-06-03T02:50:51.016Z,19.70
2018-06-03T02:51:58.495Z,19.60
2018-06-03T02:52:32.062Z,19.70
2018-06-03T02:53:05.714Z,19.60
2018-06-03T02:53:39.828Z,19.70
2018-06-03T02:54:13.731Z,19.60
2018-06-03T02:54:47.399Z,19.70
2018-06-03T02:55:20.978Z,19.60
2018-06-03T02:55:54.938Z,19.60
2018-06-03T02:56:28.548Z,19.70
2018-06-03T02:57:02.129Z,19.60
2018-06-03T02:57:35.649Z,19.60
2018-06-03T02:58:09.284Z,19.60
2018-06-03T02:58:42.885Z,19.70
2018-06-03T02:59:16.550Z,19.60
2018-06-03T02:59:50.144Z,19.60
2018-06-03T03:00:23.920Z,19.70
2018-06-03T03:00:58.619Z,19.60
2018-06-03T03:01:32.183Z,19.70
2018-06-03T03:02:05.768Z,19.70
2018-06-03T03:02:39.352Z,19.70
2018-06-03T03:03:13.705Z,19.70
2018-06-03T03:03:47.268Z,19.70
2018-06-03T03:04:22.546Z,19.70
2018-06-03T03:04:56.128Z,19.70
2018-06-03T03:05:29.695Z,19.70
2018-06-03T03:06:03.319Z,19.70
2018-06-03T03:06:37.509Z,19.70
2018-06-03T03:07:44.807Z,19.70
2018-06-03T03:08:18.401Z,19.70
2018-06-03T03:08:51.973Z,19.70
2018-06-03T03:09:25.537Z,19.70
2018-06-03T03:09:59.937Z,19.70
2018-06-03T03:10:34.107Z,19.60
2018-06-03T03:11:07.735Z,19.60
2018-06-03T03:11:41.291Z,19.60
2018-06-03T03:12:14.817Z,19.70
2018-06-03T03:12:49.324Z,19.70
2018-06-03T03:13:22.871Z,19.70
2018-06-03T03:13:56.415Z,19.60
2018-06-03T03:14:30.358Z,19.60
2018-06-03T03:15:04.021Z,19.70
2018-06-03T03:15:37.650Z,19.60
2018-06-03T03:16:11.796Z,19.60
2018-06-03T03:16:45.383Z,19.70
2018-06-03T03:17:18.883Z,19.70
2018-06-03T03:17:52.444Z,19.70
2018-06-03T03:18:26.051Z,19.70
2018-06-03T03:18:59.643Z,19.60
2018-06-03T03:19:33.296Z,19.60
2018-06-03T03:20:06.851Z,19.70
2018-06-03T03:20:40.421Z,19.60
2018-06-03T03:21:13.999Z,19.70
2018-06-03T03:21:47.528Z,19.60
2018-06-03T03:22:22.207Z,19.60
2018-06-03T03:22:55.804Z,19.70
2018-06-03T03:23:29.373Z,19.60
2018-06-03T03:24:03.037Z,19.70
2018-06-03T03:24:36.594Z,19.70
2018-06-03T03:25:10.180Z,19.60
2018-06-03T03:25:43.746Z,19.70
2018-06-03T03:26:17.337Z,19.60
2018-06-03T03:26:50.908Z,19.60
2018-06-03T03:27:25.195Z,19.60
2018-06-03T03:27:59.530Z,19.60
2018-06-03T03:28:33.752Z,19.60
2018-06-03T03:29:07.385Z,19.60
2018-06-03T03:29:41.733Z,19.70
2018-06-03T03:30:15.296Z,19.70
2018-06-03T03:30:48.937Z,19.70
2018-06-03T03:31:22.532Z,19.70
2018-06-03T03:31:56.970Z,19.60
2018-06-03T03:32:30.586Z,19.60
2018-06-03T03:33:04.084Z,19.60
2018-06-03T03:33:37.655Z,19.60
2018-06-03T03:34:11.239Z,19.60
2018-06-03T03:34:44.773Z,19.60
2018-06-03T03:35:18.321Z,19.60
2018-06-03T03:35:51.927Z,19.60
2018-06-03T03:36:25.468Z,19.60
2018-06-03T03:36:59.166Z,19.60
2018-06-03T03:37:32.697Z,19.60
2018-06-03T03:38:06.756Z,19.60
2018-06-03T03:38:40.852Z,19.60
2018-06-03T03:39:15.650Z,19.70
2018-06-03T03:39:49.257Z,19.60
2018-06-03T03:40:22.790Z,19.70
2018-06-03T03:40:56.371Z,19.70
2018-06-03T03:41:29.911Z,19.60
2018-06-03T03:42:03.502Z,19.70
2018-06-03T03:42:38.367Z,19.70
2018-06-03T03:43:11.984Z,19.70
2018-06-03T03:43:46.197Z,19.70
2018-06-03T03:44:19.760Z,19.70
2018-06-03T03:45:26.616Z,19.70
2018-06-03T03:46:00.215Z,19.70
2018-06-03T03:47:07.048Z,19.70
2018-06-03T03:47:40.556Z,19.70
2018-06-03T03:48:14.210Z,19.70
2018-06-03T03:48:47.820Z,19.70
2018-06-03T03:49:22.129Z,19.70
2018-06-03T03:49:56.289Z,19.70
2018-06-03T03:50:29.958Z,19.70
2018-06-03T03:51:03.534Z,19.70
2018-06-03T03:51:37.123Z,19.70
2018-06-03T03:52:10.705Z,19.70
2018-06-03T03:53:17.411Z,19.60
2018-06-03T03:53:51.024Z,19.70
2018-06-03T03:54:24.580Z,19.60
2018-06-03T03:54:58.166Z,19.70
2018-06-03T03:55:32.425Z,19.70
2018-06-03T03:56:06.046Z,19.70
2018-06-03T03:56:41.314Z,19.60
2018-06-03T03:57:14.916Z,19.60
2018-06-03T03:57:48.430Z,19.60
2018-06-03T03:58:22.072Z,19.60
2018-06-03T03:58:55.605Z,19.70
2018-06-03T04:00:02.403Z,19.70
2018-06-03T04:00:36.546Z,19.60
2018-06-03T04:01:10.112Z,19.60
2018-06-03T04:01:43.682Z,19.60
2018-06-03T04:02:17.238Z,19.70
2018-06-03T04:02:51.263Z,19.60
2018-06-03T04:03:24.823Z,19.70
2018-06-03T04:03:58.595Z,19.70
2018-06-03T04:04:32.190Z,19.70
2018-06-03T04:05:05.877Z,19.70
2018-06-03T04:05:39.403Z,19.70
2018-06-03T04:06:13.024Z,19.70
2018-06-03T04:06:46.637Z,19.70
2018-06-03T04:07:20.159Z,19.70
2018-06-03T04:07:53.789Z,19.70
2018-06-03T04:08:27.381Z,19.70
2018-06-03T04:09:01.522Z,19.70
2018-06-03T04:09:35.051Z,19.70
2018-06-03T04:10:08.628Z,19.70
2018-06-03T04:10:42.276Z,19.70
2018-06-03T04:11:15.856Z,19.70
2018-06-03T04:11:49.430Z,19.70
2018-06-03T04:12:23.416Z,19.70
2018-06-03T04:12:57.673Z,19.70
2018-06-03T04:13:31.949Z,19.70
2018-06-03T04:14:05.593Z,19.70
2018-06-03T04:14:39.185Z,19.70
2018-06-03T04:15:12.769Z,19.70
2018-06-03T04:15:46.844Z,19.60
2018-06-03T04:16:20.394Z,19.70
2018-06-03T04:16:53.960Z,19.70
2018-06-03T04:17:27.546Z,19.60
2018-06-03T04:18:01.805Z,19.60
2018-06-03T04:18:35.374Z,19.60
2018-06-03T04:19:08.883Z,19.60
2018-06-03T04:19:42.431Z,19.50
2018-06-03T04:20:16.032Z,19.50
2018-06-03T04:20:49.579Z,19.50
2018-06-03T04:21:23.088Z,19.50
2018-06-03T04:21:57.643Z,19.50
2018-06-03T04:22:31.223Z,19.50
2018-06-03T04:23:04.841Z,19.50
2018-06-03T04:23:38.400Z,19.50
2018-06-03T04:24:12.558Z,19.50
2018-06-03T04:24:46.059Z,19.50
2018-06-03T04:25:19.644Z,19.50
2018-06-03T04:26:26.499Z,19.40
2018-06-03T04:27:00.027Z,19.50
2018-06-03T04:27:34.208Z,19.50
2018-06-03T04:28:07.837Z,19.50
2018-06-03T04:28:42.008Z,19.50
2018-06-03T04:29:16.181Z,19.50
2018-06-03T04:29:49.763Z,19.60
2018-06-03T04:30:23.364Z,19.60
2018-06-03T04:30:56.919Z,19.60
2018-06-03T04:31:30.468Z,19.60
2018-06-03T04:32:03.980Z,19.60
2018-06-03T04:32:37.463Z,19.60
2018-06-03T04:33:10.988Z,19.60
2018-06-03T04:33:45.644Z,19.70
2018-06-03T04:34:19.274Z,19.60
2018-06-03T04:34:52.898Z,19.60
2018-06-03T04:36:00.409Z,19.70
2018-06-03T04:36:34.020Z,19.70
2018-06-03T04:37:07.546Z,19.70
2018-06-03T04:37:41.129Z,19.70
2018-06-03T04:38:14.648Z,19.70
2018-06-03T04:38:48.179Z,19.70
2018-06-03T04:39:21.772Z,19.70
2018-06-03T04:39:55.339Z,19.70
2018-06-03T04:40:29.288Z,19.80
2018-06-03T04:41:02.848Z,19.70
2018-06-03T04:41:36.405Z,19.70
2018-06-03T04:42:10.018Z,19.70
2018-06-03T04:42:43.645Z,19.70
2018-06-03T04:43:17.212Z,19.70
2018-06-03T04:43:51.152Z,19.70
2018-06-03T04:44:25.893Z,19.70
2018-06-03T04:44:59.477Z,19.70
2018-06-03T04:45:33.427Z,19.70
2018-06-03T04:46:06.996Z,19.70
2018-06-03T04:46:40.639Z,19.70
2018-06-03T04:47:15.038Z,19.70
2018-06-03T04:47:49.528Z,19.60
2018-06-03T04:48:23.118Z,19.60
2018-06-03T04:48:56.596Z,19.60
2018-06-03T04:49:30.121Z,19.60
2018-06-03T04:50:03.687Z,19.60
2018-06-03T04:50:37.933Z,19.60
2018-06-03T04:51:12.084Z,19.60
2018-06-03T04:51:46.214Z,19.60
2018-06-03T04:52:20.731Z,19.60
2018-06-03T04:52:54.296Z,19.60
2018-06-03T04:53:27.807Z,19.60
2018-06-03T04:54:01.405Z,19.60
2018-06-03T04:54:35.496Z,19.60
2018-06-03T04:55:09.103Z,19.60
2018-06-03T04:55:42.637Z,19.60
2018-06-03T04:56:16.876Z,19.60
2018-06-03T04:56:50.395Z,19.60
2018-06-03T04:57:25.108Z,19.60
2018-06-03T04:57:58.632Z,19.60
2018-06-03T04:58:32.186Z,19.60
2018-06-03T04:59:05.809Z,19.60
2018-06-03T04:59:39.314Z,19.60
2018-06-03T05:00:12.933Z,19.60
2018-06-03T05:00:46.497Z,19.60
2018-06-03T05:01:21.647Z,19.60
2018-06-03T05:01:55.244Z,19.60
2018-06-03T05:02:28.804Z,19.60
2018-06-03T05:03:03.033Z,19.60
2018-06-03T05:03:36.610Z,19.60
2018-06-03T05:04:43.548Z,19.50
2018-06-03T05:05:17.128Z,19.60
2018-06-03T05:05:50.800Z,19.50
2018-06-03T05:06:24.377Z,19.60
2018-06-03T05:06:57.989Z,19.60
2018-06-03T05:07:31.525Z,19.60
2018-06-03T05:08:05.467Z,19.50
2018-06-03T05:08:39.235Z,19.60
2018-06-03T05:09:12.796Z,19.60
2018-06-03T05:09:46.334Z,19.60
2018-06-03T05:10:19.876Z,19.50
2018-06-03T05:10:53.669Z,19.50
2018-06-03T05:11:27.320Z,19.50
2018-06-03T05:12:01.444Z,19.50
2018-06-03T05:12:35.940Z,19.50
2018-06-03T05:13:09.525Z,19.50
2018-06-03T05:13:43.569Z,19.50
2018-06-03T05:14:17.381Z,19.50
2018-06-03T05:14:50.960Z,19.50
2018-06-03T05:15:25.262Z,19.40
2018-06-03T05:15:59.688Z,19.50
2018-06-03T05:16:34.484Z,19.50
2018-06-03T05:17:08.035Z,19.50
2018-06-03T05:17:41.582Z,19.40
2018-06-03T05:18:15.212Z,19.50
2018-06-03T05:18:49.471Z,19.40
2018-06-03T05:19:22.998Z,19.50
2018-06-03T05:19:56.586Z,19.40
2018-06-03T05:21:03.383Z,19.50
2018-06-03T05:21:36.987Z,19.50
2018-06-03T05:22:10.559Z,19.50
2018-06-03T05:22:44.119Z,19.50
2018-06-03T05:23:17.716Z,19.50
2018-06-03T05:23:51.340Z,19.60
2018-06-03T05:24:24.913Z,19.60
2018-06-03T05:24:58.502Z,19.60
2018-06-03T05:25:32.087Z,19.60
2018-06-03T05:26:05.682Z,19.60
2018-06-03T05:26:39.222Z,19.60
2018-06-03T05:27:12.787Z,19.60
2018-06-03T05:27:46.402Z,19.60
2018-06-03T05:28:19.970Z,19.60
2018-06-03T05:28:53.532Z,19.60
2018-06-03T05:29:27.275Z,19.60
2018-06-03T05:30:00.829Z,19.60
2018-06-03T05:30:35.064Z,19.60
2018-06-03T05:31:09.225Z,19.70
2018-06-03T05:31:43.324Z,19.70
2018-06-03T05:32:16.913Z,19.70
2018-06-03T05:32:51.886Z,19.70
2018-06-03T05:33:26.203Z,19.70
2018-06-03T05:33:59.824Z,19.70
2018-06-03T05:34:33.395Z,19.70
2018-06-03T05:35:07.053Z,19.70
2018-06-03T05:35:40.588Z,19.70
2018-06-03T05:36:15.447Z,19.70
2018-06-03T05:36:49.900Z,19.70
2018-06-03T05:37:23.521Z,19.70
2018-06-03T05:37:57.110Z,19.70
2018-06-03T05:38:30.663Z,19.70
2018-06-03T05:39:06.079Z,19.70
2018-06-03T05:39:39.618Z,19.70
2018-06-03T05:40:13.161Z,19.70
2018-06-03T05:40:46.750Z,19.70
2018-06-03T05:41:20.912Z,19.70
2018-06-03T05:41:55.487Z,19.70
2018-06-03T05:42:30.014Z,19.70
2018-06-03T05:43:03.545Z,19.70
2018-06-03T05:43:37.356Z,19.70
2018-06-03T05:44:10.936Z,19.70
2018-06-03T05:44:44.489Z,19.70
2018-06-03T05:45:18.001Z,19.80
2018-06-03T05:45:52.113Z,19.80
2018-06-03T05:46:25.660Z,19.80
2018-06-03T05:46:59.220Z,19.80
2018-06-03T05:47:32.810Z,19.80
2018-06-03T05:48:06.333Z,19.80
2018-06-03T05:48:40.497Z,19.80
2018-06-03T05:49:14.101Z,19.80
2018-06-03T05:49:47.658Z,19.80
2018-06-03T05:50:23.529Z,19.80
2018-06-03T05:50:57.737Z,19.80
2018-06-03T05:51:31.292Z,19.80
2018-06-03T05:52:04.850Z,19.80
2018-06-03T05:52:38.400Z,19.80
2018-06-03T05:53:11.973Z,19.80
2018-06-03T05:53:45.613Z,19.80
2018-06-03T05:54:19.556Z,19.80
2018-06-03T05:54:53.201Z,19.80
2018-06-03T05:55:27.008Z,19.80
2018-06-03T05:56:00.806Z,19.80
2018-06-03T05:56:34.399Z,19.80
2018-06-03T05:57:08.004Z,19.80
2018-06-03T05:57:41.613Z,19.80
2018-06-03T05:58:15.281Z,19.80
2018-06-03T05:58:48.902Z,19.80
2018-06-03T05:59:23.252Z,19.80
2018-06-03T05:59:57.129Z,19.80
2018-06-03T06:00:31.259Z,19.80
2018-06-03T06:01:04.891Z,19.80
2018-06-03T06:01:38.968Z,19.80
2018-06-03T06:02:12.852Z,19.80
2018-06-03T06:02:46.470Z,19.80
2018-06-03T06:03:20.108Z,19.80
2018-06-03T06:03:53.711Z,19.90
2018-06-03T06:04:27.243Z,19.90
2018-06-03T06:05:00.841Z,19.90
2018-06-03T06:05:34.424Z,19.90
2018-06-03T06:06:07.985Z,19.90
2018-06-03T06:07:15.409Z,19.90
2018-06-03T06:07:49.088Z,19.90
2018-06-03T06:08:22.664Z,20.00
2018-06-03T06:08:56.189Z,19.90
2018-06-03T06:09:29.721Z,19.90
2018-06-03T06:10:03.324Z,19.90
2018-06-03T06:10:36.968Z,19.90
2018-06-03T06:11:10.519Z,19.90
2018-06-03T06:11:44.159Z,19.90
2018-06-03T06:12:18.330Z,19.90
2018-06-03T06:12:51.876Z,20.00
2018-06-03T06:13:25.444Z,20.00
2018-06-03T06:13:59.005Z,20.00
2018-06-03T06:14:33.223Z,20.00
2018-06-03T06:15:06.863Z,20.00
2018-06-03T06:15:40.440Z,20.00
2018-06-03T06:16:14.816Z,20.00
2018-06-03T06:16:49.392Z,20.00
2018-06-03T06:17:23.008Z,20.00
2018-06-03T06:17:56.560Z,20.00
2018-06-03T06:18:30.135Z,20.00
2018-06-03T06:19:03.844Z,20.00
2018-06-03T06:19:37.460Z,20.10
2018-06-03T06:20:44.387Z,20.10
2018-06-03T06:21:17.951Z,20.10
2018-06-03T06:21:52.123Z,20.10
2018-06-03T06:22:25.648Z,20.10
2018-06-03T06:22:59.327Z,20.10
2018-06-03T06:23:32.964Z,20.10
2018-06-03T06:24:06.585Z,20.10
2018-06-03T06:24:40.153Z,20.10
2018-06-03T06:25:13.740Z,20.10
2018-06-03T06:25:47.304Z,20.10
2018-06-03T06:26:22.566Z,20.20
2018-06-03T06:26:56.075Z,20.20
2018-06-03T06:27:29.648Z,20.20
2018-06-03T06:28:04.506Z,20.20
2018-06-03T06:28:38.092Z,20.20
2018-06-03T06:29:11.640Z,20.20
2018-06-03T06:29:47.200Z,20.20
2018-06-03T06:30:21.573Z,20.30
2018-06-03T06:30:55.123Z,20.30
2018-06-03T06:31:28.652Z,20.30
2018-06-03T06:32:02.217Z,20.30
2018-06-03T06:32:35.880Z,20.40
2018-06-03T06:33:09.450Z,20.30
2018-06-03T06:33:43.730Z,20.40
2018-06-03T06:34:17.566Z,20.40
2018-06-03T06:34:52.222Z,20.40
2018-06-03T06:35:25.755Z,20.40
2018-06-03T06:35:59.309Z,20.40
2018-06-03T06:36:33.512Z,20.40
2018-06-03T06:37:07.136Z,20.40
2018-06-03T06:37:40.690Z,20.40
2018-06-03T06:38:14.292Z,20.50
2018-06-03T06:38:47.895Z,20.50
2018-06-03T06:39:21.481Z,20.50
2018-06-03T06:39:56.440Z,20.50
2018-06-03T06:41:03.242Z,20.60
2018-06-03T06:41:37.567Z,20.60
2018-06-03T06:42:11.156Z,20.60
2018-06-03T06:42:44.690Z,20.60
2018-06-03T06:43:18.237Z,20.60
2018-06-03T06:43:51.816Z,20.60
2018-06-03T06:44:25.380Z,20.60
2018-06-03T06:44:59.745Z,20.70
2018-06-03T06:45:33.336Z,20.70
2018-06-03T06:46:06.909Z,20.70
2018-06-03T06:46:40.524Z,20.70
2018-06-03T06:47:14.744Z,20.70
2018-06-03T06:47:48.328Z,20.80
2018-06-03T06:48:22.385Z,20.80
2018-06-03T06:48:55.960Z,20.80
2018-06-03T06:49:29.516Z,20.80
2018-06-03T06:50:03.130Z,20.80
2018-06-03T06:50:36.683Z,20.90
2018-06-03T06:51:10.315Z,20.80
2018-06-03T06:51:44.025Z,20.80
2018-06-03T06:52:17.557Z,20.80
2018-06-03T06:52:51.097Z,20.90
2018-06-03T06:53:24.639Z,20.80
2018-06-03T06:53:58.220Z,20.90
2018-06-03T06:54:31.819Z,20.80
2018-06-03T06:55:05.451Z,20.90
2018-06-03T06:56:45.458Z,20.90
2018-06-03T06:57:19.052Z,20.80
2018-06-03T06:57:52.576Z,20.80
2018-06-03T06:58:26.172Z,20.90
2018-06-03T06:58:59.731Z,20.90
2018-06-03T06:59:33.878Z,20.90
2018-06-03T07:00:07.545Z,20.90
2018-06-03T07:00:41.079Z,20.90
2018-06-03T07:01:15.208Z,20.90
2018-06-03T07:01:48.788Z,21.00
2018-06-03T07:02:22.440Z,21.00
2018-06-03T07:02:55.982Z,21.00
2018-06-03T07:03:29.562Z,21.00
2018-06-03T07:04:03.168Z,20.90
2018-06-03T07:04:36.756Z,21.00
2018-06-03T07:05:10.314Z,21.00
2018-06-03T07:05:43.861Z,21.00
2018-06-03T07:06:17.389Z,21.00
2018-06-03T07:06:51.237Z,20.90
2018-06-03T07:07:24.840Z,20.90
2018-06-03T07:07:58.524Z,20.90
2018-06-03T07:08:33.063Z,20.90
2018-06-03T07:09:07.251Z,20.90
2018-06-03T07:09:41.420Z,20.90
2018-06-03T07:10:14.964Z,20.90
2018-06-03T07:10:48.553Z,20.90
2018-06-03T07:11:22.163Z,20.90
2018-06-03T07:11:56.459Z,21.00
2018-06-03T07:12:30.018Z,21.00
2018-06-03T07:13:03.642Z,21.00
2018-06-03T07:13:37.215Z,21.00
2018-06-03T07:14:10.773Z,21.00
2018-06-03T07:14:44.358Z,21.00
2018-06-03T07:15:17.904Z,21.10
2018-06-03T07:15:51.417Z,21.10
2018-06-03T07:16:24.989Z,21.10
2018-06-03T07:16:58.495Z,21.10
2018-06-03T07:17:32.654Z,21.10
2018-06-03T07:18:06.217Z,21.10
2018-06-03T07:18:39.749Z,21.10
2018-06-03T07:19:13.810Z,21.10
2018-06-03T07:19:47.379Z,21.10
2018-06-03T07:20:20.945Z,21.10
2018-06-03T07:20:54.521Z,21.10
2018-06-03T07:21:28.045Z,21.10
2018-06-03T07:22:01.559Z,21.10
2018-06-03T07:22:35.135Z,21.10
2018-06-03T07:23:08.672Z,21.10
2018-06-03T07:23:42.208Z,21.10
2018-06-03T07:24:15.800Z,21.10
2018-06-03T07:24:49.384Z,21.10
2018-06-03T07:25:23.919Z,21.10
2018-06-03T07:25:57.545Z,21.10
2018-06-03T07:26:31.354Z,21.20
2018-06-03T07:27:05.617Z,21.20
2018-06-03T07:27:39.395Z,21.20
2018-06-03T07:28:12.928Z,21.20
2018-06-03T07:28:47.084Z,21.20
2018-06-03T07:29:21.341Z,21.20
2018-06-03T07:29:54.947Z,21.20
2018-06-03T07:30:29.115Z,21.20
2018-06-03T07:31:04.392Z,21.20
2018-06-03T07:31:38.119Z,21.20
2018-06-03T07:32:11.679Z,21.20
2018-06-03T07:32:45.236Z,21.20
2018-06-03T07:33:18.815Z,21.20
2018-06-03T07:33:52.468Z,21.30